createdAt,value
2019-02-12T00:01:15.847Z,4.30
2019-02-12T00:04:04.813Z,4.30
2019-02-12T00:06:52.974Z,4.30
2019-02-12T00:09:40.830Z,4.20
2019-02-12T00:12:29.486Z,4.20
2019-02-12T00:15:17.614Z,4.20
2019-02-12T00:18:06.203Z,4.20
2019-02-12T00:20:54.438Z,4.20
2019-02-12T00:23:42.457Z,4.10
2019-02-12T00:26:30.798Z,4.00
2019-02-12T00:29:18.834Z,4.00
2019-02-12T00:32:07.129Z,3.90
2019-02-12T00:34:55.164Z,3.80
2019-02-12T00:37:43.504Z,3.70
2019-02-12T00:40:31.543Z,3.60
2019-02-12T00:43:20.073Z,3.60
2019-02-12T00:46:07.779Z,3.50
2019-02-12T00:48:56.352Z,3.50
2019-02-12T00:51:44.857Z,3.40
2019-02-12T00:54:33.019Z,3.30
2019-02-12T00:57:21.059Z,3.30
2019-02-12T01:00:11.327Z,3.30
2019-02-12T01:02:59.291Z,3.20
2019-02-12T01:05:47.554Z,3.20
2019-02-12T01:08:36.211Z,3.10
2019-02-12T01:11:24.229Z,3.10
2019-02-12T01:14:12.827Z,3.00
2019-02-12T01:17:00.841Z,3.00
2019-02-12T01:19:48.823Z,3.00
2019-02-12T01:22:37.156Z,3.00
2019-02-12T01:25:24.817Z,3.00
2019-02-12T01:28:13.110Z,3.00
2019-02-12T01:31:01.923Z,3.00
2019-02-12T01:33:50.394Z,3.00
2019-02-12T01:36:38.903Z,3.10
2019-02-12T01:39:26.867Z,3.20
2019-02-12T01:42:15.557Z,3.30
2019-02-12T01:45:04.118Z,3.40
2019-02-12T01:47:52.259Z,3.40
2019-02-12T01:50:40.425Z,3.50
2019-02-12T01:53:28.665Z,3.60
2019-02-12T01:56:16.294Z,3.70
2019-02-12T01:59:04.295Z,3.60
2019-02-12T02:01:52.654Z,3.60
2019-02-12T02:04:40.436Z,3.60
2019-02-12T02:07:28.815Z,3.60
2019-02-12T02:10:17.987Z,3.60
2019-02-12T02:13:05.843Z,3.60
2019-02-12T02:15:54.350Z,3.60
2019-02-12T02:18:42.362Z,3.70
2019-02-12T02:21:29.931Z,3.70
2019-02-12T02:24:18.152Z,3.70
2019-02-12T02:27:06.323Z,3.60
2019-02-12T02:29:54.516Z,3.50
2019-02-12T02:32:42.974Z,3.50
2019-02-12T02:35:31.029Z,3.50
2019-02-12T02:38:19.564Z,3.50
2019-02-12T02:41:07.091Z,3.40
2019-02-12T02:43:55.309Z,3.40
2019-02-12T02:46:43.633Z,3.30
2019-02-12T02:49:31.787Z,3.30
2019-02-12T02:52:19.994Z,3.30
2019-02-12T02:55:08.487Z,3.30
2019-02-12T02:57:56.687Z,3.30
2019-02-12T03:00:45.207Z,3.30
2019-02-12T03:03:33.105Z,3.30
2019-02-12T03:06:20.985Z,3.20
2019-02-12T03:09:08.965Z,3.10
2019-02-12T03:11:57.440Z,3.20
2019-02-12T03:14:46.253Z,3.20
2019-02-12T03:17:34.719Z,3.30
2019-02-12T03:20:22.770Z,3.40
2019-02-12T03:23:10.956Z,3.40
2019-02-12T03:25:58.587Z,3.40
2019-02-12T03:28:46.337Z,3.50
2019-02-12T03:31:34.489Z,3.50
2019-02-12T03:34:22.990Z,3.50
2019-02-12T03:37:11.175Z,3.50
2019-02-12T03:39:59.399Z,3.50
2019-02-12T03:42:47.825Z,3.60
2019-02-12T03:45:35.947Z,3.60
2019-02-12T03:48:24.283Z,3.50
2019-02-12T03:51:12.142Z,3.40
2019-02-12T03:54:00.427Z,3.40
2019-02-12T03:56:47.899Z,3.20
2019-02-12T03:59:36.202Z,3.20
2019-02-12T04:02:24.730Z,3.10
2019-02-12T04:05:13.175Z,3.10
2019-02-12T04:08:01.215Z,3.00
2019-02-12T04:10:49.492Z,3.00
2019-02-12T04:13:37.987Z,3.10
2019-02-12T04:16:25.521Z,3.10
2019-02-12T04:19:14.139Z,3.20
2019-02-12T04:22:02.013Z,3.20
2019-02-12T04:24:50.223Z,3.30
2019-02-12T04:27:38.423Z,3.40
2019-02-12T04:30:26.375Z,3.30
2019-02-12T04:33:13.990Z,3.40
2019-02-12T04:36:02.436Z,3.40
2019-02-12T04:38:50.994Z,3.40
2019-02-12T04:41:39.212Z,3.30
2019-02-12T04:44:27.279Z,3.40
2019-02-12T04:47:15.636Z,3.30
2019-02-12T04:50:03.867Z,3.20
2019-02-12T04:52:52.067Z,3.20
2019-02-12T04:55:39.539Z,3.10
2019-02-12T04:58:27.766Z,3.00
2019-02-12T05:01:16.118Z,2.90
2019-02-12T05:04:04.143Z,2.80
2019-02-12T05:06:51.669Z,2.70
2019-02-12T05:09:42.091Z,2.70
2019-02-12T05:12:30.318Z,2.80
2019-02-12T05:15:18.611Z,2.70
2019-02-12T05:18:06.525Z,2.70
2019-02-12T05:20:54.835Z,2.60
2019-02-12T05:23:42.614Z,2.60
2019-02-12T05:26:30.799Z,2.60
2019-02-12T05:29:19.003Z,2.60
2019-02-12T05:32:07.080Z,2.50
2019-02-12T05:34:55.901Z,2.50
2019-02-12T05:37:44.590Z,2.50
2019-02-12T05:40:32.591Z,2.50
2019-02-12T05:43:21.020Z,2.40
2019-02-12T05:46:09.023Z,2.40
2019-02-12T05:48:57.275Z,2.50
2019-02-12T05:51:45.570Z,2.50
2019-02-12T05:54:33.480Z,2.50
2019-02-12T05:57:27.266Z,2.60
2019-02-12T06:00:16.994Z,2.70
2019-02-12T06:03:05.467Z,2.70
2019-02-12T06:05:54.010Z,2.80
2019-02-12T06:08:42.579Z,2.80
2019-02-12T06:11:30.370Z,2.70
2019-02-12T06:14:18.630Z,2.80
2019-02-12T06:17:06.607Z,2.70
2019-02-12T06:19:54.491Z,2.80
2019-02-12T06:22:42.755Z,2.90
2019-02-12T06:25:30.728Z,2.90
2019-02-12T06:28:18.783Z,3.00
2019-02-12T06:31:07.714Z,3.00
2019-02-12T06:33:55.630Z,2.90
2019-02-12T06:36:43.559Z,2.90
2019-02-12T06:39:31.590Z,3.00
2019-02-12T06:42:19.468Z,3.00
2019-02-12T06:45:08.479Z,3.00
2019-02-12T06:47:56.958Z,3.00
2019-02-12T06:50:44.571Z,3.00
2019-02-12T06:53:33.075Z,3.10
2019-02-12T06:56:21.334Z,3.00
2019-02-12T06:59:09.990Z,3.00
2019-02-12T07:02:33.840Z,3.00
2019-02-12T07:05:21.839Z,3.10
2019-02-12T07:08:37.480Z,3.20
2019-02-12T07:11:49.576Z,3.20
2019-02-12T07:14:59.165Z,3.20
2019-02-12T07:18:01.905Z,3.30
2019-02-12T07:21:46.192Z,3.40
2019-02-12T07:24:58.723Z,3.40
2019-02-12T07:28:15.810Z,3.40
2019-02-12T07:31:28.328Z,3.40
2019-02-12T07:34:56.604Z,3.50
2019-02-12T07:38:06.204Z,3.60
2019-02-12T07:41:23.214Z,3.70
2019-02-12T07:44:26.127Z,3.90
2019-02-12T07:48:02.384Z,3.80
2019-02-12T07:51:17.851Z,3.90
2019-02-12T07:54:32.087Z,4.00
2019-02-12T07:57:49.759Z,3.90
2019-02-12T08:00:58.731Z,4.00
2019-02-12T08:04:25.399Z,4.10
2019-02-12T08:07:40.831Z,4.10
2019-02-12T08:11:01.822Z,4.20
2019-02-12T08:14:02.547Z,4.30
2019-02-12T08:17:01.721Z,4.50
2019-02-12T08:20:13.085Z,4.40
2019-02-12T08:23:41.191Z,4.60
2019-02-12T08:27:20.032Z,4.70
2019-02-12T08:30:36.395Z,4.70
2019-02-12T08:34:08.810Z,4.70
2019-02-12T08:37:37.436Z,4.70
2019-02-12T08:41:11.642Z,4.70
2019-02-12T08:44:30.238Z,4.70
2019-02-12T08:47:47.527Z,4.70
2019-02-12T08:51:11.622Z,4.70
2019-02-12T08:54:34.675Z,4.70
2019-02-12T08:57:57.384Z,4.90
2019-02-12T09:01:20.169Z,4.90
2019-02-12T09:04:57.482Z,5.00
2019-02-12T09:08:15.530Z,5.10
2019-02-12T09:11:29.859Z,5.20
2019-02-12T09:14:41.903Z,5.10
2019-02-12T09:18:00.960Z,5.10
2019-02-12T09:21:17.697Z,5.20
2019-02-12T09:24:39.527Z,5.30
2019-02-12T09:28:02.419Z,5.60
2019-02-12T09:31:16.592Z,5.70
2019-02-12T09:34:45.452Z,6.00
2019-02-12T09:38:23.750Z,5.90
2019-02-12T09:41:40.691Z,6.00
2019-02-12T09:45:12.178Z,6.10
2019-02-12T09:48:14.863Z,5.80
2019-02-12T09:51:44.701Z,5.70
2019-02-12T09:55:08.116Z,5.70
2019-02-12T09:58:26.295Z,5.80
2019-02-12T10:01:40.095Z,5.70
2019-02-12T10:05:09.603Z,5.70
2019-02-12T10:08:28.983Z,5.70
2019-02-12T10:11:44.235Z,5.80
2019-02-12T10:15:03.019Z,5.90
2019-02-12T10:18:10.309Z,6.30
2019-02-12T10:21:29.587Z,6.50
2019-02-12T10:24:48.463Z,6.70
2019-02-12T10:27:58.547Z,7.00
2019-02-12T10:31:09.762Z,7.20
2019-02-12T10:33:57.767Z,7.00
2019-02-12T10:36:45.738Z,6.80
2019-02-12T10:39:34.133Z,6.80
2019-02-12T10:42:21.663Z,7.00
2019-02-12T10:45:10.142Z,7.10
2019-02-12T10:47:57.727Z,7.20
2019-02-12T10:50:46.214Z,7.30
2019-02-12T10:53:34.343Z,7.50
2019-02-12T10:56:21.859Z,7.40
2019-02-12T10:59:10.338Z,7.20
2019-02-12T11:01:58.099Z,7.50
2019-02-12T11:04:46.707Z,8.20
2019-02-12T11:07:34.985Z,9.20
2019-02-12T11:10:23.236Z,10.20
2019-02-12T11:13:11.251Z,11.50
2019-02-12T11:15:59.559Z,12.90
2019-02-12T11:18:48.248Z,14.20
2019-02-12T11:21:36.711Z,13.20
2019-02-12T11:24:24.820Z,12.20
2019-02-12T11:27:13.803Z,12.70
2019-02-12T11:30:02.176Z,14.40
2019-02-12T11:32:50.566Z,15.00
2019-02-12T11:35:38.722Z,16.20
2019-02-12T11:38:27.292Z,15.90
2019-02-12T11:41:16.462Z,16.30
2019-02-12T11:44:04.422Z,16.10
2019-02-12T11:46:51.957Z,14.90
2019-02-12T11:49:40.527Z,14.10
2019-02-12T11:52:28.575Z,15.50
2019-02-12T11:55:17.118Z,14.00
2019-02-12T11:58:04.700Z,13.10
2019-02-12T12:00:57.022Z,13.70
2019-02-12T12:03:45.693Z,13.90
2019-02-12T12:06:34.106Z,13.80
2019-02-12T12:09:22.657Z,12.20
2019-02-12T12:12:10.475Z,11.10
2019-02-12T12:14:58.050Z,11.40
2019-02-12T12:17:46.491Z,11.00
2019-02-12T12:20:35.110Z,10.60
2019-02-12T12:23:22.699Z,10.40
2019-02-12T12:26:11.163Z,10.40
2019-02-12T12:28:59.374Z,10.80
2019-02-12T12:31:47.789Z,11.40
2019-02-12T12:34:35.297Z,10.80
2019-02-12T12:37:23.796Z,9.90
2019-02-12T12:40:12.591Z,9.20
2019-02-12T12:43:01.131Z,8.80
2019-02-12T12:45:49.187Z,8.80
2019-02-12T12:48:37.759Z,8.50
2019-02-12T12:51:26.261Z,8.40
2019-02-12T12:54:14.491Z,8.40
2019-02-12T12:57:02.630Z,8.40
2019-02-12T12:59:50.847Z,8.30
2019-02-12T13:02:38.394Z,8.30
2019-02-12T13:05:26.468Z,8.30
2019-02-12T13:08:14.804Z,8.10
2019-02-12T13:11:03.132Z,7.90
2019-02-12T13:13:50.807Z,8.00
2019-02-12T13:16:39.070Z,8.00
2019-02-12T13:19:27.400Z,8.00
2019-02-12T13:22:15.867Z,7.80
2019-02-12T13:25:08.632Z,7.70
2019-02-12T13:27:54.451Z,7.70
2019-02-12T13:30:42.895Z,7.80
2019-02-12T13:33:31.318Z,7.80
2019-02-12T13:36:19.370Z,7.80
2019-02-12T13:39:07.872Z,7.80
2019-02-12T13:41:55.422Z,7.70
2019-02-12T13:44:43.835Z,7.60
2019-02-12T13:47:31.907Z,7.80
2019-02-12T13:50:20.052Z,8.10
2019-02-12T13:53:07.935Z,8.10
2019-02-12T13:55:56.339Z,8.00
2019-02-12T13:58:44.791Z,8.20
2019-02-12T14:01:33.483Z,8.20
2019-02-12T14:04:21.548Z,8.30
2019-02-12T14:07:09.301Z,8.30
2019-02-12T14:09:56.962Z,8.40
2019-02-12T14:12:44.796Z,8.80
2019-02-12T14:15:33.528Z,8.90
2019-02-12T14:18:21.470Z,9.60
2019-02-12T14:21:09.617Z,10.70
2019-02-12T14:23:58.119Z,12.10
2019-02-12T14:26:46.336Z,12.20
2019-02-12T14:29:34.336Z,11.90
2019-02-12T14:32:22.200Z,11.70
2019-02-12T14:35:11.322Z,11.00
2019-02-12T14:37:59.819Z,10.40
2019-02-12T14:40:48.693Z,10.20
2019-02-12T14:43:36.480Z,9.80
2019-02-12T14:46:25.135Z,9.20
2019-02-12T14:49:13.390Z,8.90
2019-02-12T14:52:02.305Z,9.00
2019-02-12T14:54:50.842Z,9.10
2019-02-12T14:57:41.018Z,9.00
2019-02-12T15:00:29.251Z,9.00
2019-02-12T15:03:17.683Z,9.00
2019-02-12T15:06:05.735Z,9.00
2019-02-12T15:08:54.519Z,8.90
2019-02-12T15:11:42.578Z,8.90
2019-02-12T15:14:30.926Z,8.90
2019-02-12T15:17:18.942Z,8.90
2019-02-12T15:20:07.927Z,9.10
2019-02-12T15:22:56.187Z,9.50
2019-02-12T15:25:44.669Z,9.70
2019-02-12T15:28:32.947Z,9.50
2019-02-12T15:31:21.187Z,9.20
2019-02-12T15:34:09.361Z,9.10
2019-02-12T15:36:57.283Z,8.90
2019-02-12T15:39:44.787Z,8.80
2019-02-12T15:42:33.347Z,8.70
2019-02-12T15:45:21.328Z,8.60
2019-02-12T15:48:09.035Z,8.40
2019-02-12T15:50:57.802Z,8.30
2019-02-12T15:53:46.023Z,8.20
2019-02-12T15:56:34.753Z,8.10
2019-02-12T15:59:23.271Z,8.00
2019-02-12T16:02:12.035Z,7.90
2019-02-12T16:05:00.923Z,7.80
2019-02-12T16:07:49.619Z,7.80
2019-02-12T16:10:40.112Z,7.70
2019-02-12T16:13:27.590Z,7.50
2019-02-12T16:16:15.715Z,7.50
2019-02-12T16:19:03.240Z,7.40
2019-02-12T16:21:51.470Z,7.40
2019-02-12T16:24:39.691Z,7.30
2019-02-12T16:27:28.272Z,7.20
2019-02-12T16:30:16.796Z,7.20
2019-02-12T16:33:05.572Z,7.00
2019-02-12T16:35:53.355Z,6.90
2019-02-12T16:38:41.799Z,6.80
2019-02-12T16:41:29.947Z,6.80
2019-02-12T16:44:18.251Z,6.60
2019-02-12T16:47:06.484Z,6.70
2019-02-12T16:49:55.050Z,6.60
2019-02-12T16:52:43.156Z,6.50
2019-02-12T16:55:31.354Z,6.50
2019-02-12T16:58:19.823Z,6.50
2019-02-12T17:01:07.800Z,6.40
2019-02-12T17:03:55.412Z,6.30
2019-02-12T17:06:42.988Z,6.30
2019-02-12T17:09:31.460Z,6.20
2019-02-12T17:12:19.963Z,6.20
2019-02-12T17:15:09.066Z,6.20
2019-02-12T17:17:57.067Z,6.10
2019-02-12T17:20:45.366Z,6.10
2019-02-12T17:23:33.619Z,6.00
2019-02-12T17:26:21.982Z,6.10
2019-02-12T17:29:10.294Z,6.00
2019-02-12T17:31:58.414Z,6.00
2019-02-12T17:34:46.632Z,6.00
2019-02-12T17:37:34.902Z,6.00
2019-02-12T17:40:23.358Z,6.00
2019-02-12T17:43:11.454Z,6.10
2019-02-12T17:45:59.642Z,6.10
2019-02-12T17:48:47.155Z,6.20
2019-02-12T17:51:35.237Z,6.20
2019-02-12T17:54:24.447Z,6.30
2019-02-12T17:57:12.263Z,6.40
2019-02-12T18:00:00.620Z,6.30
2019-02-12T18:02:49.027Z,6.30
2019-02-12T18:05:37.194Z,6.30
2019-02-12T18:08:25.374Z,6.20
2019-02-12T18:11:13.582Z,6.10
2019-02-12T18:14:01.152Z,6.10
2019-02-12T18:16:49.964Z,6.00
2019-02-12T18:19:37.847Z,6.00
2019-02-12T18:22:25.747Z,5.90
2019-02-12T18:25:14.418Z,5.90
2019-02-12T18:28:02.835Z,5.80
2019-02-12T18:30:51.270Z,5.80
2019-02-12T18:33:39.655Z,5.70
2019-02-12T18:36:28.105Z,5.70
2019-02-12T18:39:16.691Z,5.60
2019-02-12T18:42:05.403Z,5.60
2019-02-12T18:44:53.351Z,5.60
2019-02-12T18:47:41.567Z,5.50
2019-02-12T18:50:29.795Z,5.40
2019-02-12T18:53:18.275Z,5.40
2019-02-12T18:56:07.119Z,5.30
2019-02-12T18:58:55.428Z,5.30
2019-02-12T19:01:43.134Z,5.30
2019-02-12T19:04:30.775Z,5.30
2019-02-12T19:07:18.900Z,5.20
2019-02-12T19:10:07.535Z,5.20
2019-02-12T19:12:55.954Z,5.20
2019-02-12T19:15:43.475Z,5.20
2019-02-12T19:18:31.621Z,5.20
2019-02-12T19:21:20.120Z,5.10
2019-02-12T19:24:08.339Z,5.10
2019-02-12T19:26:56.539Z,5.10
2019-02-12T19:29:44.820Z,5.10
2019-02-12T19:32:33.064Z,5.10
2019-02-12T19:35:21.429Z,5.10
2019-02-12T19:38:09.889Z,5.00
2019-02-12T19:40:57.789Z,5.10
2019-02-12T19:43:46.099Z,5.10
2019-02-12T19:46:34.347Z,5.10
2019-02-12T19:49:22.822Z,5.10
2019-02-12T19:52:11.432Z,5.10
2019-02-12T19:54:59.875Z,5.00
2019-02-12T19:57:48.651Z,5.00
2019-02-12T20:00:36.862Z,5.00
2019-02-12T20:03:24.779Z,5.00
2019-02-12T20:06:13.580Z,5.00
2019-02-12T20:09:01.641Z,5.00
2019-02-12T20:11:50.167Z,4.90
2019-02-12T20:14:38.230Z,4.90
2019-02-12T20:17:26.343Z,4.90
2019-02-12T20:20:14.723Z,4.80
2019-02-12T20:23:03.031Z,4.90
2019-02-12T20:25:51.246Z,4.90
2019-02-12T20:28:39.634Z,4.90
2019-02-12T20:31:27.261Z,4.80
2019-02-12T20:34:15.730Z,4.80
2019-02-12T20:37:04.175Z,4.80
2019-02-12T20:39:52.160Z,4.90
2019-02-12T20:42:40.415Z,4.90
2019-02-12T20:45:28.774Z,4.80
2019-02-12T20:48:17.229Z,4.80
2019-02-12T20:51:05.391Z,4.80
2019-02-12T20:53:53.656Z,4.80
2019-02-12T20:56:41.974Z,4.80
2019-02-12T20:59:30.180Z,4.70
2019-02-12T21:02:18.458Z,4.80
2019-02-12T21:05:07.911Z,4.90
2019-02-12T21:07:56.424Z,4.90
2019-02-12T21:10:44.963Z,4.90
2019-02-12T21:13:33.248Z,4.90
2019-02-12T21:16:21.794Z,4.80
2019-02-12T21:19:09.387Z,4.80
2019-02-12T21:21:58.027Z,4.90
2019-02-12T21:24:46.975Z,4.90
2019-02-12T21:27:34.693Z,4.90
2019-02-12T21:30:23.504Z,5.00
2019-02-12T21:33:11.573Z,5.00
2019-02-12T21:35:59.603Z,5.00
2019-02-12T21:38:48.346Z,5.00
2019-02-12T21:41:36.363Z,5.00
2019-02-12T21:44:24.364Z,5.00
2019-02-12T21:47:12.978Z,5.00
2019-02-12T21:50:02.725Z,4.90
2019-02-12T21:52:50.827Z,5.00
2019-02-12T21:55:39.243Z,5.00
2019-02-12T21:58:28.986Z,5.00
2019-02-12T22:01:17.374Z,5.10
2019-02-12T22:04:05.920Z,5.10
2019-02-12T22:06:54.107Z,5.10
2019-02-12T22:09:42.320Z,5.20
2019-02-12T22:12:30.844Z,5.20
2019-02-12T22:15:19.252Z,5.20
2019-02-12T22:18:07.287Z,5.30
2019-02-12T22:20:55.279Z,5.30
2019-02-12T22:23:43.354Z,5.40
2019-02-12T22:26:31.435Z,5.40
2019-02-12T22:29:19.687Z,5.40
2019-02-12T22:32:07.434Z,5.50
2019-02-12T22:34:55.729Z,5.50
2019-02-12T22:37:43.883Z,5.50
2019-02-12T22:40:32.129Z,5.50
2019-02-12T22:43:20.275Z,5.50
2019-02-12T22:46:08.779Z,5.50
2019-02-12T22:48:56.914Z,5.50
2019-02-12T22:51:45.058Z,5.50
2019-02-12T22:54:33.542Z,5.50
2019-02-12T22:57:21.771Z,5.40
2019-02-12T23:00:51.448Z,5.40
2019-02-12T23:03:39.206Z,5.40
2019-02-12T23:06:27.281Z,5.40
2019-02-12T23:09:17.351Z,5.40
2019-02-12T23:12:05.850Z,5.40
2019-02-12T23:14:54.095Z,5.40
2019-02-12T23:17:42.186Z,5.40
2019-02-12T23:20:30.182Z,5.40
2019-02-12T23:23:18.834Z,5.40
2019-02-12T23:26:06.800Z,5.40
2019-02-12T23:28:55.071Z,5.40
2019-02-12T23:31:43.179Z,5.40
2019-02-12T23:34:31.719Z,5.40
2019-02-12T23:37:19.891Z,5.40
2019-02-12T23:40:08.654Z,5.50
2019-02-12T23:42:56.945Z,5.50
2019-02-12T23:45:45.031Z,5.60
2019-02-12T23:48:33.566Z,5.60
2019-02-12T23:51:22.166Z,5.60
2019-02-12T23:54:09.903Z,5.60
2019-02-12T23:56:58.231Z,5.60
2019-02-12T23:59:46.318Z,5.50
